IRM027 LRCL-LIRA
Flight info
| Callsign | IRM027 |
|---|---|
| Flight time | 1h 45m |
| Altitude | 38000 |
| Route | ELROM DCT DIRER DCT PEVON DCT VELUG/N0387F190 Z924 MOPUV |
| Aircraft | A346/H-SDE2E3FGHIJ3J4J5M1RWXY/LB1D1 |
Departure
| Time | 2026-05-07 02:05 |
|---|---|
| Airport | Avram Iancu Cluj International Airport (LRCL) |
Arrival
| Time | 2026-05-07 03:50 |
|---|---|
| Airport | Ciampino–G. B. Pastine International Airport (LIRA) |
| Time | Latitude | Longitude | Altitude | Speed | Heading |
|---|---|---|---|---|---|
| 2026-05-07 01:21 | 46.78671 | 23.69860 | 1027 ft | 0 kts | 270° |
| 2026-05-07 01:57 | 46.78670 | 23.69852 | 1027 ft | 1 kts | 264° |
| 2026-05-07 01:57 | 46.78666 | 23.69807 | 1028 ft | 13 kts | 261° |
| 2026-05-07 01:57 | 46.78652 | 23.69666 | 1028 ft | 11 kts | 262° |
| 2026-05-07 01:57 | 46.78643 | 23.69588 | 1028 ft | 7 kts | 260° |
| 2026-05-07 01:58 | 46.78632 | 23.69501 | 1029 ft | 9 kts | 258° |
| 2026-05-07 01:58 | 46.78617 | 23.69394 | 1029 ft | 11 kts | 259° |
| 2026-05-07 01:58 | 46.78600 | 23.69271 | 1030 ft | 12 kts | 259° |
| 2026-05-07 01:58 | 46.78583 | 23.69144 | 1031 ft | 13 kts | 261° |
| 2026-05-07 01:59 | 46.78565 | 23.69005 | 1031 ft | 14 kts | 259° |
| 2026-05-07 01:59 | 46.78544 | 23.68855 | 1031 ft | 15 kts | 258° |
| 2026-05-07 01:59 | 46.78527 | 23.68731 | 1031 ft | 7 kts | 259° |
| 2026-05-07 01:59 | 46.78515 | 23.68644 | 1031 ft | 9 kts | 259° |
| 2026-05-07 02:00 | 46.78503 | 23.68547 | 1033 ft | 9 kts | 259° |
| 2026-05-07 02:00 | 46.78489 | 23.68445 | 1034 ft | 11 kts | 259° |
| 2026-05-07 02:00 | 46.78473 | 23.68324 | 1034 ft | 12 kts | 259° |
| 2026-05-07 02:00 | 46.78455 | 23.68195 | 1035 ft | 13 kts | 258° |
| 2026-05-07 02:01 | 46.78436 | 23.68060 | 1036 ft | 13 kts | 259° |
| 2026-05-07 02:01 | 46.78418 | 23.67920 | 1037 ft | 14 kts | 259° |
| 2026-05-07 02:01 | 46.78399 | 23.67778 | 1038 ft | 14 kts | 259° |
| 2026-05-07 02:01 | 46.78379 | 23.67631 | 1040 ft | 14 kts | 259° |
| 2026-05-07 02:02 | 46.78359 | 23.67483 | 1041 ft | 15 kts | 259° |
| 2026-05-07 02:02 | 46.78341 | 23.67349 | 1041 ft | 12 kts | 264° |
| 2026-05-07 02:02 | 46.78361 | 23.67235 | 1043 ft | 11 kts | 304° |
| 2026-05-07 02:02 | 46.78399 | 23.67169 | 1044 ft | 7 kts | 310° |
| 2026-05-07 02:03 | 46.78436 | 23.67134 | 1044 ft | 5 kts | 6° |
| 2026-05-07 02:03 | 46.78468 | 23.67183 | 1043 ft | 8 kts | 72° |
| 2026-05-07 02:03 | 46.78471 | 23.67196 | 1043 ft | 0 kts | 73° |
| 2026-05-07 02:04 | 46.78482 | 23.67245 | 1042 ft | 28 kts | 72° |
| 2026-05-07 02:04 | 46.78640 | 23.67963 | 1035 ft | 116 kts | 72° |
| 2026-05-07 02:04 | 46.78965 | 23.69422 | 1070 ft | 179 kts | 72° |
| 2026-05-07 02:05 | 46.79366 | 23.71187 | 1722 ft | 186 kts | 71° |
| 2026-05-07 02:05 | 46.79772 | 23.72966 | 2494 ft | 183 kts | 71° |
| 2026-05-07 02:05 | 46.80176 | 23.74720 | 3051 ft | 187 kts | 73° |
| 2026-05-07 02:05 | 46.80589 | 23.76554 | 3513 ft | 198 kts | 73° |
| 2026-05-07 02:06 | 46.81027 | 23.78532 | 3881 ft | 214 kts | 73° |
| 2026-05-07 02:06 | 46.81506 | 23.80697 | 4241 ft | 232 kts | 73° |
| 2026-05-07 02:06 | 46.82024 | 23.83027 | 4587 ft | 253 kts | 73° |
| 2026-05-07 02:06 | 46.82595 | 23.85525 | 5049 ft | 271 kts | 68° |
| 2026-05-07 02:07 | 46.83683 | 23.87769 | 5660 ft | 281 kts | 37° |
| 2026-05-07 02:07 | 46.87346 | 23.88880 | 7212 ft | 280 kts | 340° |
| 2026-05-07 02:07 | 46.89048 | 23.87559 | 7979 ft | 280 kts | 322° |
| 2026-05-07 02:08 | 46.90640 | 23.85908 | 8704 ft | 285 kts | 322° |
| 2026-05-07 02:08 | 46.92273 | 23.84232 | 9454 ft | 289 kts | 323° |
| 2026-05-07 02:08 | 46.93928 | 23.82564 | 10202 ft | 292 kts | 323° |
| 2026-05-07 02:08 | 46.95621 | 23.80877 | 10704 ft | 304 kts | 323° |
| 2026-05-07 02:09 | 46.97396 | 23.79035 | 11044 ft | 321 kts | 317° |
| 2026-05-07 02:09 | 46.98815 | 23.76457 | 11362 ft | 334 kts | 296° |
| 2026-05-07 02:09 | 46.99559 | 23.73199 | 11665 ft | 347 kts | 276° |
| 2026-05-07 02:09 | 46.99480 | 23.69674 | 12162 ft | 354 kts | 256° |
| 2026-05-07 02:10 | 46.98541 | 23.66324 | 12883 ft | 356 kts | 237° |
| 2026-05-07 02:10 | 46.96984 | 23.63556 | 13631 ft | 358 kts | 229° |
| 2026-05-07 02:10 | 46.95332 | 23.60811 | 14280 ft | 364 kts | 229° |
| 2026-05-07 02:10 | 46.93646 | 23.57986 | 14580 ft | 379 kts | 229° |
| 2026-05-07 02:11 | 46.91898 | 23.55047 | 15070 ft | 387 kts | 229° |
| 2026-05-07 02:11 | 46.90110 | 23.52041 | 15744 ft | 391 kts | 229° |
| 2026-05-07 02:11 | 46.88334 | 23.49058 | 16421 ft | 394 kts | 229° |
| 2026-05-07 02:11 | 46.86549 | 23.46063 | 17016 ft | 397 kts | 229° |
| 2026-05-07 02:12 | 46.84726 | 23.43010 | 17619 ft | 401 kts | 229° |
| 2026-05-07 02:12 | 46.82897 | 23.39950 | 18180 ft | 405 kts | 229° |
| 2026-05-07 02:12 | 46.81043 | 23.36830 | 18772 ft | 408 kts | 231° |
| 2026-05-07 02:12 | 46.79466 | 23.33408 | 19304 ft | 412 kts | 241° |
| 2026-05-07 02:13 | 46.78305 | 23.29583 | 19879 ft | 414 kts | 250° |
| 2026-05-07 02:13 | 46.77560 | 23.25509 | 20440 ft | 418 kts | 256° |
| 2026-05-07 02:13 | 46.76938 | 23.21380 | 20973 ft | 421 kts | 257° |
| 2026-05-07 02:13 | 46.76319 | 23.17196 | 21500 ft | 425 kts | 257° |
| 2026-05-07 02:14 | 46.75681 | 23.12959 | 22012 ft | 429 kts | 257° |
| 2026-05-07 02:14 | 46.75020 | 23.08748 | 22506 ft | 432 kts | 254° |
| 2026-05-07 02:14 | 46.73841 | 23.04741 | 22962 ft | 436 kts | 238° |
| 2026-05-07 02:14 | 46.71955 | 23.01312 | 23502 ft | 439 kts | 224° |
| 2026-05-07 02:15 | 46.69511 | 22.98598 | 24004 ft | 442 kts | 214° |
| 2026-05-07 02:15 | 46.66945 | 22.96173 | 24517 ft | 445 kts | 214° |
| 2026-05-07 02:15 | 46.64344 | 22.93711 | 25007 ft | 447 kts | 214° |
| 2026-05-07 02:15 | 46.61720 | 22.91222 | 25479 ft | 450 kts | 214° |
| 2026-05-07 02:16 | 46.59105 | 22.88738 | 25939 ft | 453 kts | 214° |
| 2026-05-07 02:16 | 46.56459 | 22.86221 | 26394 ft | 455 kts | 214° |
| 2026-05-07 02:16 | 46.53823 | 22.83715 | 26839 ft | 457 kts | 214° |
| 2026-05-07 02:16 | 46.51151 | 22.81175 | 27282 ft | 460 kts | 214° |
| 2026-05-07 02:17 | 46.48475 | 22.78634 | 27695 ft | 462 kts | 215° |
| 2026-05-07 02:17 | 46.45804 | 22.76097 | 28139 ft | 464 kts | 215° |
| 2026-05-07 02:17 | 46.43086 | 22.73519 | 28753 ft | 462 kts | 215° |
| 2026-05-07 02:17 | 46.40445 | 22.71019 | 29393 ft | 459 kts | 215° |
| 2026-05-07 02:18 | 46.37796 | 22.68513 | 30004 ft | 456 kts | 215° |
| 2026-05-07 02:18 | 46.35138 | 22.66001 | 30603 ft | 454 kts | 215° |
| 2026-05-07 02:18 | 46.32500 | 22.63513 | 31184 ft | 452 kts | 216° |
| 2026-05-07 02:18 | 46.29856 | 22.61020 | 31749 ft | 450 kts | 216° |
| 2026-05-07 02:19 | 46.27235 | 22.58551 | 32285 ft | 448 kts | 216° |
| 2026-05-07 02:19 | 46.24668 | 22.56139 | 32810 ft | 446 kts | 216° |
| 2026-05-07 02:19 | 46.22053 | 22.53680 | 33339 ft | 444 kts | 217° |
| 2026-05-07 02:19 | 46.19498 | 22.51282 | 33823 ft | 442 kts | 217° |
| 2026-05-07 02:20 | 46.16913 | 22.48860 | 34301 ft | 440 kts | 217° |
| 2026-05-07 02:20 | 46.14360 | 22.46468 | 34744 ft | 439 kts | 217° |
| 2026-05-07 02:20 | 46.11823 | 22.44090 | 35119 ft | 438 kts | 217° |
| 2026-05-07 02:20 | 46.09269 | 22.41699 | 35452 ft | 437 kts | 217° |
| 2026-05-07 02:21 | 46.06712 | 22.39310 | 35753 ft | 437 kts | 217° |
| 2026-05-07 02:21 | 46.04179 | 22.36945 | 36041 ft | 437 kts | 217° |
| 2026-05-07 02:21 | 46.01630 | 22.34571 | 36312 ft | 438 kts | 216° |
| 2026-05-07 02:21 | 45.99072 | 22.32189 | 36550 ft | 439 kts | 216° |
| 2026-05-07 02:22 | 45.96520 | 22.29816 | 36775 ft | 440 kts | 216° |
| 2026-05-07 02:22 | 45.93933 | 22.27414 | 36992 ft | 442 kts | 216° |
| 2026-05-07 02:22 | 45.91358 | 22.25024 | 37225 ft | 443 kts | 216° |
| 2026-05-07 02:22 | 45.88778 | 22.22636 | 37480 ft | 444 kts | 216° |
| 2026-05-07 02:23 | 45.86163 | 22.20217 | 37734 ft | 445 kts | 216° |
| 2026-05-07 02:23 | 45.83569 | 22.17820 | 37929 ft | 446 kts | 216° |
| 2026-05-07 02:23 | 45.78361 | 22.13017 | 37973 ft | 450 kts | 216° |
| 2026-05-07 02:24 | 45.73103 | 22.08182 | 37981 ft | 449 kts | 216° |
| 2026-05-07 02:24 | 45.67835 | 22.03348 | 37982 ft | 449 kts | 216° |
| 2026-05-07 02:25 | 45.62575 | 21.98526 | 37986 ft | 449 kts | 216° |
| 2026-05-07 02:25 | 45.57364 | 21.93766 | 37985 ft | 448 kts | 216° |
| 2026-05-07 02:26 | 45.52111 | 21.88974 | 37981 ft | 448 kts | 216° |
| 2026-05-07 02:26 | 45.46869 | 21.84201 | 37986 ft | 448 kts | 216° |
| 2026-05-07 02:27 | 45.41620 | 21.79435 | 37989 ft | 447 kts | 216° |
| 2026-05-07 02:27 | 45.36413 | 21.74716 | 37989 ft | 447 kts | 216° |
| 2026-05-07 02:28 | 45.31152 | 21.69962 | 37987 ft | 447 kts | 216° |
| 2026-05-07 02:28 | 45.25916 | 21.65237 | 37983 ft | 447 kts | 216° |
| 2026-05-07 02:29 | 45.20686 | 21.60530 | 37986 ft | 447 kts | 216° |
| 2026-05-07 02:29 | 45.15435 | 21.55811 | 37985 ft | 445 kts | 216° |
| 2026-05-07 02:30 | 45.10194 | 21.51116 | 37982 ft | 446 kts | 216° |
| 2026-05-07 02:30 | 45.05071 | 21.46240 | 37978 ft | 442 kts | 222° |
| 2026-05-07 02:31 | 45.00647 | 21.40376 | 37979 ft | 438 kts | 232° |
| 2026-05-07 02:31 | 44.97015 | 21.33526 | 37979 ft | 435 kts | 240° |
| 2026-05-07 02:32 | 44.94289 | 21.25981 | 37972 ft | 432 kts | 248° |
| 2026-05-07 02:32 | 44.91928 | 21.18217 | 37971 ft | 431 kts | 248° |
| 2026-05-07 02:33 | 44.89579 | 21.10474 | 37958 ft | 431 kts | 248° |
| 2026-05-07 02:33 | 44.87208 | 21.02679 | 37957 ft | 432 kts | 248° |
| 2026-05-07 02:34 | 44.84848 | 20.94954 | 37959 ft | 432 kts | 248° |
| 2026-05-07 02:34 | 44.82470 | 20.87196 | 37968 ft | 432 kts | 248° |
| 2026-05-07 02:35 | 44.80084 | 20.79432 | 37973 ft | 431 kts | 248° |
| 2026-05-07 02:35 | 44.77700 | 20.71699 | 37976 ft | 432 kts | 248° |
| 2026-05-07 02:36 | 44.75322 | 20.64005 | 37979 ft | 431 kts | 248° |
| 2026-05-07 02:36 | 44.72930 | 20.56293 | 37984 ft | 431 kts | 248° |
| 2026-05-07 02:37 | 44.70533 | 20.48590 | 37988 ft | 430 kts | 248° |
| 2026-05-07 02:37 | 44.68144 | 20.40930 | 37985 ft | 430 kts | 248° |
| 2026-05-07 02:38 | 44.65733 | 20.33231 | 37990 ft | 430 kts | 246° |
| 2026-05-07 02:38 | 44.63329 | 20.25568 | 37991 ft | 430 kts | 247° |
| 2026-05-07 02:39 | 44.60912 | 20.17894 | 37985 ft | 430 kts | 246° |
| 2026-05-07 02:39 | 44.58509 | 20.10279 | 37987 ft | 430 kts | 246° |
| 2026-05-07 02:40 | 44.56083 | 20.02622 | 37990 ft | 429 kts | 246° |
| 2026-05-07 02:40 | 44.53657 | 19.94975 | 37994 ft | 429 kts | 246° |
| 2026-05-07 02:41 | 44.51233 | 19.87369 | 37991 ft | 429 kts | 246° |
| 2026-05-07 02:41 | 44.48795 | 19.79740 | 37992 ft | 429 kts | 246° |
| 2026-05-07 02:42 | 44.46373 | 19.72178 | 37996 ft | 428 kts | 246° |
| 2026-05-07 02:42 | 44.43940 | 19.64609 | 37998 ft | 428 kts | 246° |
| 2026-05-07 02:43 | 44.41501 | 19.57035 | 38004 ft | 427 kts | 246° |
| 2026-05-07 02:43 | 44.39058 | 19.49478 | 38005 ft | 427 kts | 246° |
| 2026-05-07 02:44 | 44.36623 | 19.41962 | 38012 ft | 426 kts | 246° |
| 2026-05-07 02:44 | 44.34181 | 19.34451 | 38022 ft | 427 kts | 245° |
| 2026-05-07 02:45 | 44.31720 | 19.26898 | 38026 ft | 426 kts | 245° |
| 2026-05-07 02:45 | 44.29266 | 19.19393 | 38028 ft | 425 kts | 245° |
| 2026-05-07 02:46 | 44.26803 | 19.11882 | 38035 ft | 425 kts | 245° |
| 2026-05-07 02:46 | 44.24355 | 19.04434 | 38037 ft | 425 kts | 245° |
| 2026-05-07 02:47 | 44.21897 | 18.96973 | 38036 ft | 424 kts | 245° |
| 2026-05-07 02:47 | 44.19437 | 18.89532 | 38034 ft | 424 kts | 245° |
| 2026-05-07 02:48 | 44.16956 | 18.82047 | 38036 ft | 424 kts | 245° |
| 2026-05-07 02:48 | 44.14488 | 18.74630 | 38033 ft | 425 kts | 245° |
| 2026-05-07 02:49 | 44.11999 | 18.67160 | 38034 ft | 425 kts | 245° |
| 2026-05-07 02:49 | 44.09519 | 18.59741 | 38033 ft | 425 kts | 245° |
| 2026-05-07 02:50 | 44.07017 | 18.52280 | 38037 ft | 424 kts | 245° |
| 2026-05-07 02:50 | 44.04533 | 18.44887 | 38037 ft | 424 kts | 245° |
| 2026-05-07 02:51 | 44.02030 | 18.37463 | 38042 ft | 424 kts | 244° |
| 2026-05-07 02:51 | 43.99525 | 18.30055 | 38046 ft | 424 kts | 244° |
| 2026-05-07 02:52 | 43.97017 | 18.22653 | 38043 ft | 424 kts | 244° |
| 2026-05-07 02:52 | 43.94507 | 18.15272 | 38047 ft | 424 kts | 244° |
| 2026-05-07 02:53 | 43.91989 | 18.07881 | 38042 ft | 425 kts | 244° |
| 2026-05-07 02:53 | 43.89455 | 18.00465 | 38037 ft | 425 kts | 244° |
| 2026-05-07 02:54 | 43.86932 | 17.93102 | 38038 ft | 424 kts | 244° |
| 2026-05-07 02:54 | 43.84410 | 17.85759 | 38037 ft | 424 kts | 244° |
| 2026-05-07 02:55 | 43.81863 | 17.78368 | 38049 ft | 425 kts | 243° |
| 2026-05-07 02:55 | 43.79332 | 17.71044 | 38042 ft | 425 kts | 243° |
| 2026-05-07 02:56 | 43.76789 | 17.63705 | 38043 ft | 424 kts | 244° |
| 2026-05-07 02:56 | 43.74223 | 17.56317 | 38041 ft | 425 kts | 244° |
| 2026-05-07 02:57 | 43.71671 | 17.48993 | 38039 ft | 424 kts | 243° |
| 2026-05-07 02:57 | 43.69117 | 17.41672 | 38038 ft | 425 kts | 243° |
| 2026-05-07 02:58 | 43.66537 | 17.34304 | 38042 ft | 424 kts | 243° |
| 2026-05-07 02:58 | 43.63968 | 17.26987 | 38043 ft | 425 kts | 243° |
| 2026-05-07 02:59 | 43.61393 | 17.19673 | 38041 ft | 425 kts | 243° |
| 2026-05-07 02:59 | 43.58825 | 17.12396 | 38043 ft | 425 kts | 243° |
| 2026-05-07 03:00 | 43.56223 | 17.05050 | 38043 ft | 425 kts | 242° |
| 2026-05-07 03:00 | 43.53437 | 16.97914 | 38038 ft | 426 kts | 240° |
| 2026-05-07 03:01 | 43.50615 | 16.90792 | 38035 ft | 425 kts | 240° |
| 2026-05-07 03:01 | 43.47781 | 16.83657 | 38025 ft | 426 kts | 240° |
| 2026-05-07 03:02 | 43.44938 | 16.76520 | 38022 ft | 426 kts | 240° |
| 2026-05-07 03:02 | 43.42098 | 16.69406 | 38012 ft | 425 kts | 240° |
| 2026-05-07 03:03 | 43.39248 | 16.62290 | 37995 ft | 426 kts | 240° |
| 2026-05-07 03:03 | 43.36411 | 16.55215 | 37999 ft | 425 kts | 240° |
| 2026-05-07 03:04 | 43.33553 | 16.48115 | 37996 ft | 425 kts | 240° |
| 2026-05-07 03:04 | 43.30685 | 16.41008 | 37993 ft | 426 kts | 240° |
| 2026-05-07 03:05 | 43.27814 | 16.33906 | 37987 ft | 426 kts | 239° |
| 2026-05-07 03:05 | 43.24943 | 16.26827 | 37981 ft | 427 kts | 239° |
| 2026-05-07 03:06 | 43.22064 | 16.19741 | 37974 ft | 426 kts | 239° |
| 2026-05-07 03:06 | 43.19187 | 16.12677 | 37959 ft | 427 kts | 239° |
| 2026-05-07 03:07 | 43.16289 | 16.05581 | 37960 ft | 428 kts | 240° |
| 2026-05-07 03:07 | 43.13369 | 15.98446 | 37956 ft | 429 kts | 239° |
| 2026-05-07 03:08 | 43.10453 | 15.91339 | 37950 ft | 429 kts | 239° |
| 2026-05-07 03:08 | 43.07550 | 15.84285 | 37947 ft | 429 kts | 239° |
| 2026-05-07 03:09 | 43.04625 | 15.77187 | 37937 ft | 429 kts | 239° |
| 2026-05-07 03:09 | 43.01694 | 15.70100 | 37943 ft | 429 kts | 239° |
| 2026-05-07 03:10 | 42.98768 | 15.63040 | 37931 ft | 429 kts | 239° |
| 2026-05-07 03:10 | 42.95840 | 15.55987 | 37926 ft | 428 kts | 240° |
| 2026-05-07 03:11 | 42.92889 | 15.48900 | 37924 ft | 429 kts | 239° |
| 2026-05-07 03:11 | 42.89946 | 15.41854 | 37915 ft | 429 kts | 240° |
| 2026-05-07 03:12 | 42.86995 | 15.34805 | 37926 ft | 430 kts | 239° |
| 2026-05-07 03:12 | 42.84042 | 15.27769 | 37916 ft | 430 kts | 239° |
| 2026-05-07 03:13 | 42.81074 | 15.20715 | 37920 ft | 430 kts | 239° |
| 2026-05-07 03:13 | 42.78107 | 15.13676 | 37911 ft | 430 kts | 239° |
| 2026-05-07 03:14 | 42.75135 | 15.06644 | 37916 ft | 430 kts | 239° |
| 2026-05-07 03:15 | 42.70681 | 14.96138 | 37912 ft | 429 kts | 239° |
| 2026-05-07 03:15 | 42.67705 | 14.89139 | 37917 ft | 429 kts | 239° |
| 2026-05-07 03:16 | 42.64759 | 14.82064 | 37930 ft | 429 kts | 240° |
| 2026-05-07 03:16 | 42.61832 | 14.75020 | 37936 ft | 430 kts | 240° |
| 2026-05-07 03:17 | 42.58894 | 14.67978 | 37941 ft | 430 kts | 240° |
| 2026-05-07 03:17 | 42.55948 | 14.60932 | 37945 ft | 431 kts | 240° |
| 2026-05-07 03:18 | 42.52995 | 14.53879 | 37947 ft | 431 kts | 240° |
| 2026-05-07 03:18 | 42.50036 | 14.46831 | 37950 ft | 431 kts | 240° |
| 2026-05-07 03:19 | 42.47064 | 14.39766 | 37954 ft | 431 kts | 240° |
| 2026-05-07 03:19 | 42.44103 | 14.32750 | 37903 ft | 430 kts | 239° |
| 2026-05-07 03:19 | 42.42620 | 14.29242 | 37295 ft | 431 kts | 239° |
| 2026-05-07 03:20 | 42.41129 | 14.25717 | 36325 ft | 437 kts | 239° |
| 2026-05-07 03:20 | 42.39625 | 14.22171 | 35526 ft | 442 kts | 239° |
| 2026-05-07 03:20 | 42.38094 | 14.18561 | 34781 ft | 445 kts | 238° |
| 2026-05-07 03:20 | 42.36540 | 14.14910 | 33959 ft | 447 kts | 238° |
| 2026-05-07 03:21 | 42.35006 | 14.11319 | 33117 ft | 449 kts | 239° |
| 2026-05-07 03:21 | 42.33424 | 14.07619 | 32188 ft | 451 kts | 238° |
| 2026-05-07 03:21 | 42.31867 | 14.03980 | 31254 ft | 454 kts | 238° |
| 2026-05-07 03:21 | 42.30296 | 14.00308 | 30308 ft | 456 kts | 238° |
| 2026-05-07 03:22 | 42.28704 | 13.96594 | 29316 ft | 459 kts | 239° |
| 2026-05-07 03:22 | 42.27108 | 13.92880 | 28436 ft | 458 kts | 239° |
| 2026-05-07 03:22 | 42.25538 | 13.89225 | 27886 ft | 451 kts | 239° |
| 2026-05-07 03:22 | 42.23974 | 13.85586 | 27317 ft | 446 kts | 239° |
| 2026-05-07 03:23 | 42.22425 | 13.81986 | 26786 ft | 440 kts | 239° |
| 2026-05-07 03:23 | 42.20893 | 13.78421 | 26229 ft | 436 kts | 240° |
| 2026-05-07 03:23 | 42.19483 | 13.74842 | 25653 ft | 432 kts | 243° |
| 2026-05-07 03:23 | 42.18217 | 13.71180 | 25081 ft | 428 kts | 246° |
| 2026-05-07 03:24 | 42.17119 | 13.67509 | 24519 ft | 425 kts | 248° |
| 2026-05-07 03:24 | 42.16066 | 13.63783 | 23935 ft | 421 kts | 249° |
| 2026-05-07 03:24 | 42.15041 | 13.60162 | 23376 ft | 418 kts | 249° |
| 2026-05-07 03:24 | 42.14012 | 13.56516 | 22810 ft | 415 kts | 249° |
| 2026-05-07 03:25 | 42.12990 | 13.52900 | 22384 ft | 408 kts | 249° |
| 2026-05-07 03:25 | 42.11997 | 13.49391 | 22207 ft | 396 kts | 248° |
| 2026-05-07 03:25 | 42.11031 | 13.45979 | 22131 ft | 382 kts | 249° |
| 2026-05-07 03:25 | 42.10097 | 13.42691 | 22038 ft | 369 kts | 249° |
| 2026-05-07 03:26 | 42.09242 | 13.39684 | 21954 ft | 357 kts | 248° |
| 2026-05-07 03:26 | 42.08361 | 13.36593 | 21851 ft | 345 kts | 248° |
| 2026-05-07 03:26 | 42.07518 | 13.33635 | 21687 ft | 335 kts | 248° |
| 2026-05-07 03:26 | 42.06699 | 13.30793 | 21597 ft | 323 kts | 246° |
| 2026-05-07 03:27 | 42.05793 | 13.28092 | 21519 ft | 311 kts | 243° |
| 2026-05-07 03:27 | 42.04776 | 13.25541 | 21211 ft | 308 kts | 239° |
| 2026-05-07 03:27 | 42.03686 | 13.23075 | 20831 ft | 307 kts | 239° |
| 2026-05-07 03:27 | 42.02591 | 13.20609 | 20465 ft | 305 kts | 239° |
| 2026-05-07 03:28 | 42.01507 | 13.18168 | 20204 ft | 299 kts | 239° |
| 2026-05-07 03:28 | 42.00469 | 13.15820 | 20137 ft | 287 kts | 242° |
| 2026-05-07 03:28 | 41.99840 | 13.13330 | 20028 ft | 283 kts | 262° |
| 2026-05-07 03:28 | 41.99910 | 13.10697 | 19693 ft | 289 kts | 278° |
| 2026-05-07 03:29 | 42.00347 | 13.08060 | 19318 ft | 287 kts | 278° |
| 2026-05-07 03:29 | 42.00782 | 13.05444 | 18973 ft | 285 kts | 278° |
| 2026-05-07 03:29 | 42.01205 | 13.02864 | 18628 ft | 283 kts | 278° |
| 2026-05-07 03:29 | 42.01625 | 13.00279 | 18281 ft | 282 kts | 278° |
| 2026-05-07 03:30 | 42.02040 | 12.97708 | 17941 ft | 281 kts | 278° |
| 2026-05-07 03:30 | 42.02448 | 12.95175 | 17623 ft | 281 kts | 278° |
| 2026-05-07 03:30 | 42.02860 | 12.92616 | 17300 ft | 279 kts | 278° |
| 2026-05-07 03:30 | 42.03289 | 12.90066 | 16979 ft | 278 kts | 279° |
| 2026-05-07 03:31 | 42.03737 | 12.87548 | 16662 ft | 276 kts | 280° |
| 2026-05-07 03:31 | 42.04179 | 12.85070 | 16332 ft | 275 kts | 280° |
| 2026-05-07 03:31 | 42.04622 | 12.82581 | 15999 ft | 273 kts | 280° |
| 2026-05-07 03:31 | 42.05061 | 12.80107 | 15686 ft | 271 kts | 280° |
| 2026-05-07 03:32 | 42.05497 | 12.77632 | 15359 ft | 270 kts | 280° |
| 2026-05-07 03:32 | 42.05927 | 12.75184 | 15044 ft | 268 kts | 280° |
| 2026-05-07 03:32 | 42.06346 | 12.72805 | 14961 ft | 266 kts | 280° |
| 2026-05-07 03:32 | 42.06777 | 12.70342 | 14834 ft | 269 kts | 280° |
| 2026-05-07 03:33 | 42.07213 | 12.67848 | 14355 ft | 278 kts | 281° |
| 2026-05-07 03:33 | 42.07658 | 12.65297 | 13879 ft | 281 kts | 281° |
| 2026-05-07 03:33 | 42.08099 | 12.62771 | 13409 ft | 279 kts | 281° |
| 2026-05-07 03:33 | 42.08542 | 12.60236 | 12958 ft | 277 kts | 281° |
| 2026-05-07 03:34 | 42.08982 | 12.57718 | 12509 ft | 275 kts | 281° |
| 2026-05-07 03:34 | 42.09412 | 12.55241 | 12030 ft | 274 kts | 281° |
| 2026-05-07 03:34 | 42.09842 | 12.52741 | 11536 ft | 273 kts | 281° |
| 2026-05-07 03:34 | 42.10267 | 12.50253 | 11051 ft | 271 kts | 281° |
| 2026-05-07 03:35 | 42.10680 | 12.47792 | 10471 ft | 274 kts | 282° |
| 2026-05-07 03:35 | 42.11078 | 12.45300 | 9848 ft | 276 kts | 278° |
| 2026-05-07 03:35 | 42.10924 | 12.42768 | 9201 ft | 277 kts | 246° |
| 2026-05-07 03:35 | 42.09764 | 12.40723 | 8585 ft | 279 kts | 218° |
| 2026-05-07 03:36 | 42.08029 | 12.39549 | 7957 ft | 283 kts | 194° |
| 2026-05-07 03:36 | 42.06085 | 12.39480 | 7338 ft | 287 kts | 168° |
| 2026-05-07 03:36 | 42.04284 | 12.40567 | 6691 ft | 287 kts | 144° |
| 2026-05-07 03:36 | 42.02711 | 12.42220 | 6110 ft | 282 kts | 143° |
| 2026-05-07 03:37 | 42.01196 | 12.43798 | 5619 ft | 275 kts | 144° |
| 2026-05-07 03:37 | 41.99697 | 12.45343 | 5121 ft | 270 kts | 143° |
| 2026-05-07 03:37 | 41.98178 | 12.46794 | 4660 ft | 268 kts | 149° |
| 2026-05-07 03:37 | 41.96549 | 12.48004 | 4168 ft | 273 kts | 153° |
| 2026-05-07 03:38 | 41.94864 | 12.49160 | 3680 ft | 278 kts | 153° |
| 2026-05-07 03:38 | 41.93130 | 12.50362 | 3028 ft | 279 kts | 153° |
| 2026-05-07 03:38 | 41.91427 | 12.51563 | 2666 ft | 277 kts | 152° |
| 2026-05-07 03:38 | 41.89753 | 12.52722 | 2235 ft | 269 kts | 152° |
| 2026-05-07 03:39 | 41.88280 | 12.53733 | 1951 ft | 256 kts | 152° |
| 2026-05-07 03:39 | 41.86666 | 12.54844 | 1641 ft | 240 kts | 152° |
| 2026-05-07 03:39 | 41.85244 | 12.55825 | 1340 ft | 220 kts | 152° |
| 2026-05-07 03:39 | 41.83946 | 12.56719 | 1077 ft | 200 kts | 152° |
| 2026-05-07 03:40 | 41.82756 | 12.57539 | 827 ft | 187 kts | 152° |
| 2026-05-07 03:40 | 41.81632 | 12.58315 | 592 ft | 174 kts | 151° |
| 2026-05-07 03:40 | 41.80586 | 12.59035 | 513 ft | 179 kts | 152° |
| 2026-05-07 03:40 | 41.79398 | 12.59847 | 946 ft | 202 kts | 154° |
| 2026-05-07 03:41 | 41.78083 | 12.60046 | 1730 ft | 205 kts | 195° |
| 2026-05-07 03:41 | 41.77002 | 12.58948 | 2455 ft | 197 kts | 239° |
| 2026-05-07 03:41 | 41.76685 | 12.57195 | 2862 ft | 200 kts | 275° |
| 2026-05-07 03:41 | 41.77231 | 12.55398 | 2999 ft | 221 kts | 302° |
| 2026-05-07 03:42 | 41.78103 | 12.53655 | 2997 ft | 226 kts | 304° |
| 2026-05-07 03:42 | 41.78991 | 12.51918 | 2984 ft | 226 kts | 303° |
| 2026-05-07 03:42 | 41.79880 | 12.50154 | 2979 ft | 226 kts | 303° |
| 2026-05-07 03:42 | 41.80752 | 12.48399 | 2978 ft | 226 kts | 303° |
| 2026-05-07 03:43 | 41.81623 | 12.46631 | 2978 ft | 226 kts | 303° |
| 2026-05-07 03:43 | 41.82485 | 12.44874 | 2976 ft | 226 kts | 302° |
| 2026-05-07 03:43 | 41.83339 | 12.43134 | 2976 ft | 226 kts | 304° |
| 2026-05-07 03:43 | 41.84467 | 12.41692 | 2957 ft | 228 kts | 331° |
| 2026-05-07 03:44 | 41.86033 | 12.41114 | 2962 ft | 237 kts | 355° |
| 2026-05-07 03:44 | 41.87683 | 12.40938 | 2996 ft | 232 kts | 357° |
| 2026-05-07 03:44 | 41.89243 | 12.40802 | 2974 ft | 221 kts | 357° |
| 2026-05-07 03:44 | 41.90764 | 12.40657 | 2966 ft | 214 kts | 357° |
| 2026-05-07 03:45 | 41.92232 | 12.40648 | 2953 ft | 211 kts | 13° |
| 2026-05-07 03:45 | 41.93499 | 12.41434 | 2952 ft | 196 kts | 39° |
| 2026-05-07 03:45 | 41.94395 | 12.42750 | 2967 ft | 193 kts | 60° |
| 2026-05-07 03:45 | 41.94888 | 12.44404 | 2973 ft | 191 kts | 80° |
| 2026-05-07 03:46 | 41.94962 | 12.46168 | 2976 ft | 189 kts | 98° |
| 2026-05-07 03:46 | 41.94647 | 12.47850 | 2975 ft | 189 kts | 115° |
| 2026-05-07 03:46 | 41.94036 | 12.49234 | 2972 ft | 188 kts | 133° |
| 2026-05-07 03:46 | 41.93025 | 12.50368 | 2970 ft | 188 kts | 148° |
| 2026-05-07 03:47 | 41.91894 | 12.51252 | 2772 ft | 187 kts | 152° |
| 2026-05-07 03:47 | 41.90765 | 12.52031 | 2516 ft | 177 kts | 153° |
| 2026-05-07 03:47 | 41.89726 | 12.52733 | 2288 ft | 168 kts | 153° |
| 2026-05-07 03:47 | 41.88750 | 12.53399 | 2089 ft | 164 kts | 152° |
| 2026-05-07 03:48 | 41.87730 | 12.54102 | 1881 ft | 162 kts | 152° |
| 2026-05-07 03:48 | 41.86731 | 12.54793 | 1677 ft | 161 kts | 152° |
| 2026-05-07 03:48 | 41.85741 | 12.55478 | 1464 ft | 161 kts | 152° |
| 2026-05-07 03:48 | 41.84756 | 12.56158 | 1249 ft | 160 kts | 152° |
| 2026-05-07 03:49 | 41.83756 | 12.56849 | 1027 ft | 160 kts | 152° |
| 2026-05-07 03:49 | 41.82772 | 12.57520 | 785 ft | 159 kts | 152° |
| 2026-05-07 03:49 | 41.81786 | 12.58198 | 554 ft | 159 kts | 150° |
| 2026-05-07 03:49 | 41.80814 | 12.58873 | 386 ft | 158 kts | 151° |
| 2026-05-07 03:50 | 41.79953 | 12.59474 | 399 ft | 104 kts | 154° |
| 2026-05-07 03:50 | 41.79523 | 12.59769 | 425 ft | 45 kts | 154° |
| 2026-05-07 03:50 | 41.79283 | 12.59936 | 432 ft | 33 kts | 152° |
| 2026-05-07 03:50 | 41.79148 | 12.60031 | 436 ft | 14 kts | 152° |
| 2026-05-07 03:51 | 41.79088 | 12.60062 | 437 ft | 7 kts | 176° |
| 2026-05-07 03:51 | 41.79040 | 12.60011 | 435 ft | 12 kts | 250° |
| 2026-05-07 03:51 | 41.79012 | 12.59897 | 434 ft | 10 kts | 255° |
| 2026-05-07 03:51 | 41.78995 | 12.59804 | 434 ft | 10 kts | 263° |
| 2026-05-07 03:52 | 41.79039 | 12.59728 | 432 ft | 13 kts | 339° |
| 2026-05-07 03:52 | 41.79083 | 12.59722 | 431 ft | 3 kts | 41° |
| 2026-05-07 03:52 | 41.79089 | 12.59739 | 431 ft | 2 kts | 69° |
| 2026-05-07 03:52 | 41.79091 | 12.59745 | 431 ft | 0 kts | 69° |